sensor_id;sensor_type;location;lat;lon;timestamp;pressure;altitude;pressure_sealevel;temperature;humidity
65384;BME280;51986;52.788;41.368;2023-05-24T00:01:49;99069.06;;;17.58;60.46
65384;BME280;51986;52.788;41.368;2023-05-24T00:04:17;99032.91;;;17.38;60.69
65384;BME280;51986;52.788;41.368;2023-05-24T00:06:44;99056.31;;;17.53;60.71
65384;BME280;51986;52.788;41.368;2023-05-24T00:09:11;99056.44;;;17.49;60.80
65384;BME280;51986;52.788;41.368;2023-05-24T00:11:38;99013.78;;;17.49;60.78
65384;BME280;51986;52.788;41.368;2023-05-24T00:14:05;99041.31;;;17.46;60.65
65384;BME280;51986;52.788;41.368;2023-05-24T00:16:32;99048.72;;;17.51;60.85
65384;BME280;51986;52.788;41.368;2023-05-24T00:18:59;99049.47;;;17.52;60.85
65384;BME280;51986;52.788;41.368;2023-05-24T00:21:26;99038.25;;;17.48;60.44
65384;BME280;51986;52.788;41.368;2023-05-24T00:23:53;99038.38;;;17.62;60.79
65384;BME280;51986;52.788;41.368;2023-05-24T00:26:20;99044.88;;;17.61;60.78
65384;BME280;51986;52.788;41.368;2023-05-24T00:28:54;99045.78;;;17.67;60.56
65384;BME280;51986;52.788;41.368;2023-05-24T00:31:21;99047.84;;;17.63;60.35
65384;BME280;51986;52.788;41.368;2023-05-24T00:33:48;99056.88;;;17.57;60.30
65384;BME280;51986;52.788;41.368;2023-05-24T00:36:17;99037.03;;;17.58;60.09
65384;BME280;51986;52.788;41.368;2023-05-24T00:38:46;99039.84;;;17.63;60.20
65384;BME280;51986;52.788;41.368;2023-05-24T00:41:15;99026.06;;;17.65;59.99
65384;BME280;51986;52.788;41.368;2023-05-24T00:43:42;99035.84;;;17.68;60.09
65384;BME280;51986;52.788;41.368;2023-05-24T00:46:26;99025.59;;;17.76;59.94
65384;BME280;51986;52.788;41.368;2023-05-24T00:48:54;99031.72;;;17.58;60.26
65384;BME280;51986;52.788;41.368;2023-05-24T00:51:23;99017.66;;;17.48;60.20
65384;BME280;51986;52.788;41.368;2023-05-24T00:53:50;99024.44;;;17.58;60.40
65384;BME280;51986;52.788;41.368;2023-05-24T00:56:17;99040.44;;;17.49;60.78
65384;BME280;51986;52.788;41.368;2023-05-24T00:58:45;99026.53;;;17.54;60.14
65384;BME280;51986;52.788;41.368;2023-05-24T01:01:12;99043.41;;;17.42;60.69
65384;BME280;51986;52.788;41.368;2023-05-24T01:03:39;99036.00;;;17.46;60.39
65384;BME280;51986;52.788;41.368;2023-05-24T01:06:07;99051.13;;;17.49;60.83
65384;BME280;51986;52.788;41.368;2023-05-24T01:17:12;99051.13;;;17.49;60.80
65384;BME280;51986;52.788;41.368;2023-05-24T01:27:52;99048.72;;;17.51;60.14
65384;BME280;51986;52.788;41.368;2023-05-24T01:30:24;99049.34;;;17.73;59.36
65384;BME280;51986;52.788;41.368;2023-05-24T01:32:54;99064.16;;;17.84;60.17
65384;BME280;51986;52.788;41.368;2023-05-24T01:35:22;99049.63;;;17.76;59.70
65384;BME280;51986;52.788;41.368;2023-05-24T01:37:49;99078.97;;;17.76;60.21
65384;BME280;51986;52.788;41.368;2023-05-24T01:40:16;99054.38;;;17.71;60.27
65384;BME280;51986;52.788;41.368;2023-05-24T01:45:47;99065.47;;;17.97;60.04
65384;BME280;51986;52.788;41.368;2023-05-24T01:48:37;99064.41;;;17.95;59.61
65384;BME280;51986;52.788;41.368;2023-05-24T01:51:10;99027.97;;;17.92;59.77
65384;BME280;51986;52.788;41.368;2023-05-24T01:53:45;99039.69;;;17.85;59.64
65384;BME280;51986;52.788;41.368;2023-05-24T01:56:12;99021.28;;;17.96;59.30
65384;BME280;51986;52.788;41.368;2023-05-24T01:58:43;99035.97;;;18.10;59.41
65384;BME280;51986;52.788;41.368;2023-05-24T02:01:12;99031.78;;;18.09;59.22
65384;BME280;51986;52.788;41.368;2023-05-24T02:03:40;99049.16;;;18.14;59.30
65384;BME280;51986;52.788;41.368;2023-05-24T02:06:07;99041.56;;;18.31;59.11
65384;BME280;51986;52.788;41.368;2023-05-24T02:08:34;99047.72;;;18.46;58.50
65384;BME280;51986;52.788;41.368;2023-05-24T02:11:01;99104.50;;;18.65;58.14
65384;BME280;51986;52.788;41.368;2023-05-24T02:13:28;99057.84;;;18.75;57.71
65384;BME280;51986;52.788;41.368;2023-05-24T02:15:55;99057.91;;;18.90;57.20
65384;BME280;51986;52.788;41.368;2023-05-24T02:18:24;99035.84;;;18.80;57.10
65384;BME280;51986;52.788;41.368;2023-05-24T02:20:51;99065.34;;;19.19;56.88
65384;BME280;51986;52.788;41.368;2023-05-24T02:23:19;99052.84;;;19.25;56.56
65384;BME280;51986;52.788;41.368;2023-05-24T02:25:45;99070.88;;;19.39;56.34
65384;BME280;51986;52.788;41.368;2023-05-24T02:28:12;99052.44;;;19.41;55.79
65384;BME280;51986;52.788;41.368;2023-05-24T02:30:39;99051.31;;;19.48;55.53
65384;BME280;51986;52.788;41.368;2023-05-24T02:33:07;99073.94;;;19.47;55.78
65384;BME280;51986;52.788;41.368;2023-05-24T02:35:34;99056.13;;;19.44;55.80
65384;BME280;51986;52.788;41.368;2023-05-24T02:38:01;99066.94;;;19.49;55.20
65384;BME280;51986;52.788;41.368;2023-05-24T02:40:28;99067.09;;;20.73;53.17
65384;BME280;51986;52.788;41.368;2023-05-24T02:42:55;99082.09;;;21.88;49.44
65384;BME280;51986;52.788;41.368;2023-05-24T02:45:22;99092.66;;;22.17;48.62
65384;BME280;51986;52.788;41.368;2023-05-24T02:47:49;99092.03;;;22.28;47.68
65384;BME280;51986;52.788;41.368;2023-05-24T02:50:16;99077.78;;;21.96;49.47
65384;BME280;51986;52.788;41.368;2023-05-24T02:52:43;99081.84;;;21.86;49.01
65384;BME280;51986;52.788;41.368;2023-05-24T02:55:10;99088.31;;;21.73;49.67
65384;BME280;51986;52.788;41.368;2023-05-24T02:57:37;99086.03;;;23.24;46.03
65384;BME280;51986;52.788;41.368;2023-05-24T03:00:05;99093.84;;;24.55;43.04
65384;BME280;51986;52.788;41.368;2023-05-24T03:02:32;99097.38;;;25.30;41.04
65384;BME280;51986;52.788;41.368;2023-05-24T03:05:00;99082.63;;;25.84;39.62
65384;BME280;51986;52.788;41.368;2023-05-24T03:07:28;99087.66;;;25.99;39.47
65384;BME280;51986;52.788;41.368;2023-05-24T03:09:55;99082.72;;;26.63;38.15
65384;BME280;51986;52.788;41.368;2023-05-24T03:12:22;99091.78;;;27.33;36.77
65384;BME280;51986;52.788;41.368;2023-05-24T03:14:49;99098.19;;;27.55;36.48
65384;BME280;51986;52.788;41.368;2023-05-24T03:17:16;99101.59;;;28.12;35.14
65384;BME280;51986;52.788;41.368;2023-05-24T03:19:43;99115.63;;;28.10;35.30
65384;BME280;51986;52.788;41.368;2023-05-24T03:22:11;99097.97;;;28.36;34.64
65384;BME280;51986;52.788;41.368;2023-05-24T03:24:38;99102.41;;;29.05;34.20
65384;BME280;51986;52.788;41.368;2023-05-24T03:27:06;99092.03;;;29.30;33.30
65384;BME280;51986;52.788;41.368;2023-05-24T03:29:33;99096.84;;;29.72;32.74
65384;BME280;51986;52.788;41.368;2023-05-24T03:32:00;99083.31;;;30.21;32.08
65384;BME280;51986;52.788;41.368;2023-05-24T03:34:27;99075.56;;;30.82;31.43
65384;BME280;51986;52.788;41.368;2023-05-24T03:36:55;99073.81;;;31.36;30.46
65384;BME280;51986;52.788;41.368;2023-05-24T03:39:22;99067.69;;;31.59;29.56
65384;BME280;51986;52.788;41.368;2023-05-24T03:41:55;99085.00;;;31.84;29.23
65384;BME280;51986;52.788;41.368;2023-05-24T03:44:22;99060.09;;;32.26;29.21
65384;BME280;51986;52.788;41.368;2023-05-24T03:46:49;99037.41;;;32.01;29.33
65384;BME280;51986;52.788;41.368;2023-05-24T03:49:16;99074.84;;;31.92;29.76
65384;BME280;51986;52.788;41.368;2023-05-24T03:51:43;99052.81;;;31.83;29.79
65384;BME280;51986;52.788;41.368;2023-05-24T03:54:10;99053.56;;;31.09;31.15
65384;BME280;51986;52.788;41.368;2023-05-24T03:56:37;99077.09;;;30.62;31.74
65384;BME280;51986;52.788;41.368;2023-05-24T03:59:04;99075.38;;;31.91;30.12
65384;BME280;51986;52.788;41.368;2023-05-24T04:01:31;99065.00;;;32.35;29.39
65384;BME280;51986;52.788;41.368;2023-05-24T04:04:01;99063.91;;;32.54;28.54
65384;BME280;51986;52.788;41.368;2023-05-24T04:06:29;99047.63;;;32.79;28.65
65384;BME280;51986;52.788;41.368;2023-05-24T04:08:58;99071.47;;;32.86;28.25
65384;BME280;51986;52.788;41.368;2023-05-24T04:11:25;99064.53;;;32.85;28.16
65384;BME280;51986;52.788;41.368;2023-05-24T04:13:53;99071.72;;;32.57;28.70
65384;BME280;51986;52.788;41.368;2023-05-24T04:16:21;99058.81;;;32.58;28.44
65384;BME280;51986;52.788;41.368;2023-05-24T04:18:52;99047.97;;;32.83;28.71
65384;BME280;51986;52.788;41.368;2023-05-24T04:21:39;99065.28;;;32.78;28.79
65384;BME280;51986;52.788;41.368;2023-05-24T04:24:06;99057.53;;;32.59;28.71
65384;BME280;51986;52.788;41.368;2023-05-24T04:26:33;99072.66;;;32.52;29.13
65384;BME280;51986;52.788;41.368;2023-05-24T04:29:00;99083.72;;;32.62;28.96
65384;BME280;51986;52.788;41.368;2023-05-24T04:34:13;99071.34;;;31.84;30.04
65384;BME280;51986;52.788;41.368;2023-05-24T04:36:40;99085.72;;;31.77;30.11
65384;BME280;51986;52.788;41.368;2023-05-24T04:39:10;99093.88;;;31.47;30.67
65384;BME280;51986;52.788;41.368;2023-05-24T04:41:37;99078.22;;;31.47;30.81
65384;BME280;51986;52.788;41.368;2023-05-24T04:44:04;99071.53;;;31.79;30.23
65384;BME280;51986;52.788;41.368;2023-05-24T04:46:31;99076.47;;;31.13;31.06
65384;BME280;51986;52.788;41.368;2023-05-24T04:48:58;99098.56;;;30.95;31.60
65384;BME280;51986;52.788;41.368;2023-05-24T04:51:25;99071.44;;;30.53;32.38
65384;BME280;51986;52.788;41.368;2023-05-24T04:53:52;99102.78;;;30.46;32.10
65384;BME280;51986;52.788;41.368;2023-05-24T04:56:19;99099.84;;;30.73;31.73
65384;BME280;51986;52.788;41.368;2023-05-24T04:58:46;99108.22;;;30.75;31.72
65384;BME280;51986;52.788;41.368;2023-05-24T05:01:13;99094.00;;;30.40;32.42
65384;BME280;51986;52.788;41.368;2023-05-24T05:03:41;99104.31;;;30.34;33.04
65384;BME280;51986;52.788;41.368;2023-05-24T05:06:08;99132.75;;;30.12;33.36
65384;BME280;51986;52.788;41.368;2023-05-24T05:08:34;99120.28;;;30.16;32.43
65384;BME280;51986;52.788;41.368;2023-05-24T05:11:02;99130.53;;;30.03;33.36
65384;BME280;51986;52.788;41.368;2023-05-24T05:13:29;99123.03;;;29.48;34.33
65384;BME280;51986;52.788;41.368;2023-05-24T05:16:14;99139.72;;;29.65;34.39
65384;BME280;51986;52.788;41.368;2023-05-24T05:18:42;99117.13;;;29.36;34.32
65384;BME280;51986;52.788;41.368;2023-05-24T05:21:08;99133.75;;;29.33;35.70
65384;BME280;51986;52.788;41.368;2023-05-24T05:23:35;99134.25;;;28.65;36.03
65384;BME280;51986;52.788;41.368;2023-05-24T05:26:02;99148.25;;;29.09;35.80
65384;BME280;51986;52.788;41.368;2023-05-24T05:28:30;99119.44;;;28.66;35.70
65384;BME280;51986;52.788;41.368;2023-05-24T05:33:42;99138.16;;;28.37;36.20
65384;BME280;51986;52.788;41.368;2023-05-24T05:36:09;99155.38;;;28.53;37.70
65384;BME280;51986;52.788;41.368;2023-05-24T05:38:36;99138.81;;;28.57;37.24
65384;BME280;51986;52.788;41.368;2023-05-24T05:41:03;99172.00;;;28.50;37.55
65384;BME280;51986;52.788;41.368;2023-05-24T05:43:30;99147.19;;;28.59;36.85
65384;BME280;51986;52.788;41.368;2023-05-24T05:46:00;99164.16;;;28.46;36.94
65384;BME280;51986;52.788;41.368;2023-05-24T05:48:27;99155.78;;;28.31;37.34
65384;BME280;51986;52.788;41.368;2023-05-24T05:51:12;99170.09;;;28.45;37.56
65384;BME280;51986;52.788;41.368;2023-05-24T05:53:39;99165.53;;;28.21;37.77
65384;BME280;51986;52.788;41.368;2023-05-24T05:56:06;99170.25;;;27.63;38.78
65384;BME280;51986;52.788;41.368;2023-05-24T05:58:51;99244.63;;;26.89;39.59
65384;BME280;51986;52.788;41.368;2023-05-24T06:01:18;99182.25;;;27.00;39.82
65384;BME280;51986;52.788;41.368;2023-05-24T06:03:45;99151.94;;;27.88;38.90
65384;BME280;51986;52.788;41.368;2023-05-24T06:06:13;99174.09;;;28.25;38.04
65384;BME280;51986;52.788;41.368;2023-05-24T06:08:40;99162.72;;;27.32;38.96
65384;BME280;51986;52.788;41.368;2023-05-24T06:11:07;99156.03;;;27.14;38.96
65384;BME280;51986;52.788;41.368;2023-05-24T06:16:19;99137.41;;;28.05;37.35
65384;BME280;51986;52.788;41.368;2023-05-24T06:18:47;99149.34;;;27.96;37.22
65384;BME280;51986;52.788;41.368;2023-05-24T06:21:31;99162.34;;;27.84;37.90
65384;BME280;51986;52.788;41.368;2023-05-24T06:24:17;99133.44;;;28.38;37.19
65384;BME280;51986;52.788;41.368;2023-05-24T06:26:51;99157.09;;;28.24;37.15
65384;BME280;51986;52.788;41.368;2023-05-24T06:29:19;99150.81;;;28.16;37.31
65384;BME280;51986;52.788;41.368;2023-05-24T06:31:47;99148.84;;;28.62;36.26
65384;BME280;51986;52.788;41.368;2023-05-24T06:39:45;99158.94;;;27.41;38.69
65384;BME280;51986;52.788;41.368;2023-05-24T06:42:12;99153.19;;;28.06;37.42
65384;BME280;51986;52.788;41.368;2023-05-24T06:44:44;99143.22;;;27.58;38.28
65384;BME280;51986;52.788;41.368;2023-05-24T06:47:11;99190.09;;;28.09;37.95
65384;BME280;51986;52.788;41.368;2023-05-24T06:49:38;99165.84;;;27.60;38.08
65384;BME280;51986;52.788;41.368;2023-05-24T06:52:06;99184.09;;;27.60;37.94
65384;BME280;51986;52.788;41.368;2023-05-24T06:54:33;99168.47;;;27.47;38.20
65384;BME280;51986;52.788;41.368;2023-05-24T06:57:00;99171.44;;;27.44;38.64
65384;BME280;51986;52.788;41.368;2023-05-24T06:59:27;99177.78;;;27.27;39.60
65384;BME280;51986;52.788;41.368;2023-05-24T07:04:40;99183.34;;;26.92;40.44
65384;BME280;51986;52.788;41.368;2023-05-24T07:07:07;99193.59;;;27.23;39.77
65384;BME280;51986;52.788;41.368;2023-05-24T07:09:35;99195.81;;;27.49;39.33
65384;BME280;51986;52.788;41.368;2023-05-24T07:12:02;99178.41;;;27.14;39.48
65384;BME280;51986;52.788;41.368;2023-05-24T07:14:29;99207.25;;;27.12;38.72
65384;BME280;51986;52.788;41.368;2023-05-24T07:16:57;99203.38;;;26.77;39.73
65384;BME280;51986;52.788;41.368;2023-05-24T07:19:24;99194.09;;;27.46;38.51
65384;BME280;51986;52.788;41.368;2023-05-24T07:21:51;99191.84;;;27.26;39.05
65384;BME280;51986;52.788;41.368;2023-05-24T07:24:18;99199.00;;;26.69;39.74
65384;BME280;51986;52.788;41.368;2023-05-24T07:26:45;99196.63;;;26.90;39.42
65384;BME280;51986;52.788;41.368;2023-05-24T07:29:12;99218.81;;;27.12;38.93
65384;BME280;51986;52.788;41.368;2023-05-24T07:31:39;99193.47;;;27.34;38.49
65384;BME280;51986;52.788;41.368;2023-05-24T07:34:06;99175.38;;;27.86;37.30
65384;BME280;51986;52.788;41.368;2023-05-24T07:36:33;99184.22;;;27.86;37.01
65384;BME280;51986;52.788;41.368;2023-05-24T07:39:01;99209.56;;;27.70;37.35
65384;BME280;51986;52.788;41.368;2023-05-24T07:41:28;99217.88;;;27.53;38.42
65384;BME280;51986;52.788;41.368;2023-05-24T07:43:55;99225.69;;;27.81;38.42
65384;BME280;51986;52.788;41.368;2023-05-24T07:46:22;99216.28;;;28.07;36.86
65384;BME280;51986;52.788;41.368;2023-05-24T07:48:49;99219.63;;;27.94;37.47
65384;BME280;51986;52.788;41.368;2023-05-24T07:51:16;99215.41;;;28.50;37.26
65384;BME280;51986;52.788;41.368;2023-05-24T07:53:43;99225.63;;;28.57;35.92
65384;BME280;51986;52.788;41.368;2023-05-24T07:56:10;99211.94;;;28.81;35.52
65384;BME280;51986;52.788;41.368;2023-05-24T07:58:37;99209.13;;;28.74;35.77
65384;BME280;51986;52.788;41.368;2023-05-24T08:01:04;99233.69;;;28.95;36.20
65384;BME280;51986;52.788;41.368;2023-05-24T08:03:33;99242.47;;;28.36;36.52
65384;BME280;51986;52.788;41.368;2023-05-24T08:06:00;99230.63;;;28.53;36.76
65384;BME280;51986;52.788;41.368;2023-05-24T08:08:27;99224.97;;;28.00;37.38
65384;BME280;51986;52.788;41.368;2023-05-24T08:10:54;99204.13;;;27.51;37.16
65384;BME280;51986;52.788;41.368;2023-05-24T08:13:21;99223.16;;;26.97;38.22
65384;BME280;51986;52.788;41.368;2023-05-24T08:15:48;99222.69;;;27.17;38.45
65384;BME280;51986;52.788;41.368;2023-05-24T08:18:15;99216.16;;;27.56;38.81
65384;BME280;51986;52.788;41.368;2023-05-24T08:20:42;99251.28;;;28.05;37.84
65384;BME280;51986;52.788;41.368;2023-05-24T08:23:10;99225.69;;;27.81;37.92
65384;BME280;51986;52.788;41.368;2023-05-24T08:25:37;99216.75;;;27.68;37.05
65384;BME280;51986;52.788;41.368;2023-05-24T08:28:04;99214.81;;;28.38;36.60
65384;BME280;51986;52.788;41.368;2023-05-24T08:30:31;99216.94;;;28.77;35.23
65384;BME280;51986;52.788;41.368;2023-05-24T08:32:58;99228.16;;;29.00;35.81
65384;BME280;51986;52.788;41.368;2023-05-24T08:35:25;99206.66;;;28.57;35.67
65384;BME280;51986;52.788;41.368;2023-05-24T08:37:52;99226.94;;;27.99;37.25
65384;BME280;51986;52.788;41.368;2023-05-24T08:40:19;99221.38;;;27.73;37.08
65384;BME280;51986;52.788;41.368;2023-05-24T08:42:46;99219.81;;;27.96;37.07
65384;BME280;51986;52.788;41.368;2023-05-24T08:45:16;99217.81;;;28.21;36.12
65384;BME280;51986;52.788;41.368;2023-05-24T08:47:45;99224.69;;;28.22;36.02
65384;BME280;51986;52.788;41.368;2023-05-24T08:50:13;99267.88;;;28.71;35.23
65384;BME280;51986;52.788;41.368;2023-05-24T08:52:41;99229.22;;;28.97;33.88
65384;BME280;51986;52.788;41.368;2023-05-24T08:55:10;99232.56;;;29.03;34.21
65384;BME280;51986;52.788;41.368;2023-05-24T08:57:37;99209.50;;;29.23;33.61
65384;BME280;51986;52.788;41.368;2023-05-24T09:00:09;99221.41;;;29.33;32.50
65384;BME280;51986;52.788;41.368;2023-05-24T09:02:38;99238.47;;;28.88;32.85
65384;BME280;51986;52.788;41.368;2023-05-24T09:05:09;99196.81;;;28.54;33.73
65384;BME280;51986;52.788;41.368;2023-05-24T09:07:37;99225.53;;;28.95;33.41
65384;BME280;51986;52.788;41.368;2023-05-24T09:10:06;99239.16;;;29.48;31.89
65384;BME280;51986;52.788;41.368;2023-05-24T09:12:36;99214.97;;;28.46;33.87
65384;BME280;51986;52.788;41.368;2023-05-24T09:15:06;99219.03;;;28.20;33.33
65384;BME280;51986;52.788;41.368;2023-05-24T09:17:35;99219.78;;;28.21;34.26
65384;BME280;51986;52.788;41.368;2023-05-24T09:20:07;99207.03;;;27.97;34.62
65384;BME280;51986;52.788;41.368;2023-05-24T09:22:36;99195.88;;;28.00;34.52
65384;BME280;51986;52.788;41.368;2023-05-24T09:25:07;99235.22;;;27.69;35.03
65384;BME280;51986;52.788;41.368;2023-05-24T09:27:34;99227.84;;;27.45;35.22
65384;BME280;51986;52.788;41.368;2023-05-24T09:30:02;99222.47;;;27.64;34.97
65384;BME280;51986;52.788;41.368;2023-05-24T09:32:30;99228.31;;;27.19;36.02
65384;BME280;51986;52.788;41.368;2023-05-24T09:34:57;99232.16;;;27.29;35.23
65384;BME280;51986;52.788;41.368;2023-05-24T09:37:26;99223.03;;;27.32;35.31
65384;BME280;51986;52.788;41.368;2023-05-24T09:39:58;99231.28;;;27.21;35.65
65384;BME280;51986;52.788;41.368;2023-05-24T09:42:26;99259.31;;;27.48;35.63
65384;BME280;51986;52.788;41.368;2023-05-24T09:45:06;99236.91;;;27.23;35.58
65384;BME280;51986;52.788;41.368;2023-05-24T09:47:40;99242.44;;;27.12;35.98
65384;BME280;51986;52.788;41.368;2023-05-24T09:50:13;99230.38;;;27.13;35.78
65384;BME280;51986;52.788;41.368;2023-05-24T09:52:40;99249.66;;;27.28;35.81
65384;BME280;51986;52.788;41.368;2023-05-24T09:55:26;99250.78;;;27.38;35.42
65384;BME280;51986;52.788;41.368;2023-05-24T09:58:11;99252.63;;;27.55;35.44
65384;BME280;51986;52.788;41.368;2023-05-24T10:00:40;99245.94;;;27.56;34.73
65384;BME280;51986;52.788;41.368;2023-05-24T10:03:09;99239.53;;;27.34;35.09
65384;BME280;51986;52.788;41.368;2023-05-24T10:05:41;99264.09;;;27.12;35.65
65384;BME280;51986;52.788;41.368;2023-05-24T10:08:10;99255.53;;;27.32;35.38
65384;BME280;51986;52.788;41.368;2023-05-24T10:10:37;99262.31;;;27.20;35.00
65384;BME280;51986;52.788;41.368;2023-05-24T10:13:05;99254.00;;;27.37;34.71
65384;BME280;51986;52.788;41.368;2023-05-24T10:15:32;99254.53;;;27.60;34.61
65384;BME280;51986;52.788;41.368;2023-05-24T10:17:59;99285.81;;;28.04;33.82
65384;BME280;51986;52.788;41.368;2023-05-24T10:20:26;99265.97;;;27.90;34.40
65384;BME280;51986;52.788;41.368;2023-05-24T10:23:03;99252.69;;;27.49;34.19
65384;BME280;51986;52.788;41.368;2023-05-24T10:25:34;99261.31;;;28.10;33.36
65384;BME280;51986;52.788;41.368;2023-05-24T10:28:07;99256.63;;;28.29;33.02
65384;BME280;51986;52.788;41.368;2023-05-24T10:33:24;99266.09;;;27.60;34.09
65384;BME280;51986;52.788;41.368;2023-05-24T10:35:52;99278.19;;;27.59;34.25
65384;BME280;51986;52.788;41.368;2023-05-24T10:38:21;99288.59;;;27.74;33.89
65384;BME280;51986;52.788;41.368;2023-05-24T10:40:49;99260.81;;;27.49;33.66
65384;BME280;51986;52.788;41.368;2023-05-24T10:43:17;99252.47;;;27.66;33.52
65384;BME280;51986;52.788;41.368;2023-05-24T10:45:48;99263.31;;;27.66;33.90
65384;BME280;51986;52.788;41.368;2023-05-24T10:50:42;99263.56;;;26.89;33.98
65384;BME280;51986;52.788;41.368;2023-05-24T10:53:12;99281.16;;;27.31;34.50
65384;BME280;51986;52.788;41.368;2023-05-24T10:55:56;99306.06;;;27.24;34.60
65384;BME280;51986;52.788;41.368;2023-05-24T11:01:27;99272.16;;;27.42;34.31
65384;BME280;51986;52.788;41.368;2023-05-24T11:04:11;99296.06;;;27.68;34.45
65384;BME280;51986;52.788;41.368;2023-05-24T11:07:05;99284.09;;;27.82;34.08
65384;BME280;51986;52.788;41.368;2023-05-24T11:09:32;99283.50;;;27.89;33.40
65384;BME280;51986;52.788;41.368;2023-05-24T11:12:06;99300.28;;;27.88;33.41
65384;BME280;51986;52.788;41.368;2023-05-24T11:14:38;99263.59;;;28.06;32.09
65384;BME280;51986;52.788;41.368;2023-05-24T11:17:06;99288.88;;;28.52;31.39
65384;BME280;51986;52.788;41.368;2023-05-24T11:19:43;99290.59;;;28.17;31.97
65384;BME280;51986;52.788;41.368;2023-05-24T11:22:12;99305.16;;;28.33;32.17
65384;BME280;51986;52.788;41.368;2023-05-24T11:24:41;99276.38;;;27.86;32.44
65384;BME280;51986;52.788;41.368;2023-05-24T11:27:10;99290.94;;;28.08;32.67
65384;BME280;51986;52.788;41.368;2023-05-24T11:29:45;99278.56;;;28.31;32.53
65384;BME280;51986;52.788;41.368;2023-05-24T11:32:18;99293.28;;;28.36;32.54
65384;BME280;51986;52.788;41.368;2023-05-24T11:34:46;99289.75;;;28.41;32.08
65384;BME280;51986;52.788;41.368;2023-05-24T11:37:13;99289.16;;;28.67;31.92
65384;BME280;51986;52.788;41.368;2023-05-24T11:39:49;99292.22;;;28.58;32.09
65384;BME280;51986;52.788;41.368;2023-05-24T11:42:16;99302.03;;;28.80;31.73
65384;BME280;51986;52.788;41.368;2023-05-24T11:44:43;99275.94;;;28.58;32.49
65384;BME280;51986;52.788;41.368;2023-05-24T11:47:14;99277.09;;;28.81;31.53
65384;BME280;51986;52.788;41.368;2023-05-24T11:49:41;99292.56;;;28.35;32.07
65384;BME280;51986;52.788;41.368;2023-05-24T11:52:08;99251.81;;;28.22;32.14
65384;BME280;51986;52.788;41.368;2023-05-24T11:54:35;99293.66;;;28.08;32.84
65384;BME280;51986;52.788;41.368;2023-05-24T11:57:02;99294.31;;;28.14;32.92
65384;BME280;51986;52.788;41.368;2023-05-24T11:59:29;99306.13;;;28.35;32.65
65384;BME280;51986;52.788;41.368;2023-05-24T12:02:05;99271.66;;;28.30;31.54
65384;BME280;51986;52.788;41.368;2023-05-24T12:04:33;99290.50;;;28.42;32.78
65384;BME280;51986;52.788;41.368;2023-05-24T12:07:01;99269.34;;;28.53;32.73
65384;BME280;51986;52.788;41.368;2023-05-24T12:09:28;99286.34;;;28.54;32.13
65384;BME280;51986;52.788;41.368;2023-05-24T12:11:55;99283.75;;;28.10;32.94
65384;BME280;51986;52.788;41.368;2023-05-24T12:14:30;99290.75;;;28.57;32.43
65384;BME280;51986;52.788;41.368;2023-05-24T12:16:58;99273.53;;;28.86;31.03
65384;BME280;51986;52.788;41.368;2023-05-24T12:19:30;99277.09;;;28.81;31.60
65384;BME280;51986;52.788;41.368;2023-05-24T12:22:03;99265.19;;;28.84;31.27
65384;BME280;51986;52.788;41.368;2023-05-24T12:24:31;99283.34;;;28.76;31.32
65384;BME280;51986;52.788;41.368;2023-05-24T12:26:59;99272.53;;;28.89;31.09
65384;BME280;51986;52.788;41.368;2023-05-24T12:29:35;99274.38;;;28.49;31.10
65384;BME280;51986;52.788;41.368;2023-05-24T12:32:03;99280.28;;;28.48;31.44
65384;BME280;51986;52.788;41.368;2023-05-24T12:34:31;99273.78;;;28.37;31.22
65384;BME280;51986;52.788;41.368;2023-05-24T12:36:58;99272.03;;;28.40;31.07
65384;BME280;51986;52.788;41.368;2023-05-24T12:39:29;99238.56;;;28.51;31.89
65384;BME280;51986;52.788;41.368;2023-05-24T12:41:57;99248.72;;;28.31;31.78
65384;BME280;51986;52.788;41.368;2023-05-24T12:44:33;99240.00;;;28.20;32.54
65384;BME280;51986;52.788;41.368;2023-05-24T12:47:02;99257.69;;;28.39;32.77
65384;BME280;51986;52.788;41.368;2023-05-24T12:49:30;99275.81;;;28.69;31.62
65384;BME280;51986;52.788;41.368;2023-05-24T12:51:57;99253.19;;;28.61;31.09
65384;BME280;51986;52.788;41.368;2023-05-24T12:54:26;99283.97;;;28.31;31.41
65384;BME280;51986;52.788;41.368;2023-05-24T12:56:54;99272.16;;;28.29;31.58
65384;BME280;51986;52.788;41.368;2023-05-24T12:59:24;99256.13;;;28.12;31.80
65384;BME280;51986;52.788;41.368;2023-05-24T13:01:51;99258.53;;;27.97;32.26
65384;BME280;51986;52.788;41.368;2023-05-24T13:04:21;99254.97;;;28.26;31.61
65384;BME280;51986;52.788;41.368;2023-05-24T13:06:48;99256.88;;;28.63;30.86
65384;BME280;51986;52.788;41.368;2023-05-24T13:09:15;99254.75;;;28.75;31.70
65384;BME280;51986;52.788;41.368;2023-05-24T13:11:42;99272.75;;;28.40;31.54
65384;BME280;51986;52.788;41.368;2023-05-24T13:14:09;99255.00;;;28.39;31.27
65384;BME280;51986;52.788;41.368;2023-05-24T13:16:36;99232.88;;;28.35;31.57
65384;BME280;51986;52.788;41.368;2023-05-24T13:19:03;99229.56;;;28.43;31.14
65384;BME280;51986;52.788;41.368;2023-05-24T13:21:30;99227.53;;;28.62;31.00
65384;BME280;51986;52.788;41.368;2023-05-24T13:23:57;99235.06;;;28.37;31.86
65384;BME280;51986;52.788;41.368;2023-05-24T13:26:24;99223.78;;;28.33;31.52
65384;BME280;51986;52.788;41.368;2023-05-24T13:28:51;99233.66;;;28.49;32.03
65384;BME280;51986;52.788;41.368;2023-05-24T13:31:38;99225.47;;;28.36;32.17
65384;BME280;51986;52.788;41.368;2023-05-24T13:34:07;99202.94;;;28.41;30.74
65384;BME280;51986;52.788;41.368;2023-05-24T13:36:34;99248.00;;;28.63;31.00
65384;BME280;51986;52.788;41.368;2023-05-24T13:39:01;99217.69;;;28.46;31.16
65384;BME280;51986;52.788;41.368;2023-05-24T13:41:42;99222.38;;;28.45;30.28
65384;BME280;51986;52.788;41.368;2023-05-24T13:44:13;99222.41;;;28.58;30.02